Time;durP1;ratioP1;P1;durP2;ratioP2;P2;SDS_P1;SDS_P2;PMS_P1;PMS_P2;Temp;Humidity;BMP_temperature;BMP_pressure;BME280_temperature;BME280_humidity;BME280_pressure;Samples;Min_cycle;Max_cycle;Signal;HPM_P1;HPM_P2
2024/02/08 00:00:35;;;;;;;;;4.33;4.33;;;;;17.56;100.00;99800.38;2107245;27;46291;-58
2024/02/08 00:01:35;;;;;;;;;6.00;5.00;;;;;17.59;100.00;99794.81;2107632;27;46249;-55
2024/02/08 00:02:36;;;;;;;;;7.00;7.00;;;;;17.59;100.00;99804.69;2116148;27;46075;-57
2024/02/08 00:03:36;;;;;;;;;4.00;4.00;;;;;17.63;100.00;99799.00;2115168;27;46624;-58
2024/02/08 00:04:37;;;;;;;;;4.33;4.33;;;;;17.63;100.00;99795.47;2107795;27;46358;-57
2024/02/08 00:05:37;;;;;;;;;4.00;4.00;;;;;17.65;100.00;99793.53;2108341;27;46856;-58
2024/02/08 00:06:37;;;;;;;;;4.33;4.33;;;;;17.67;100.00;99796.16;2117254;27;46542;-55
2024/02/08 00:07:38;;;;;;;;;6.00;5.00;;;;;17.65;100.00;99791.72;2114178;27;46291;-58
2024/02/08 00:08:38;;;;;;;;;6.67;6.67;;;;;17.65;100.00;99793.53;2115572;27;46521;-58
2024/02/08 00:09:38;;;;;;;;;4.33;4.33;;;;;17.58;100.00;99802.97;2116583;27;46253;-58
2024/02/08 00:10:39;;;;;;;;;2.67;2.67;;;;;17.52;100.00;99796.16;2116885;27;46241;-57
2024/02/08 00:11:39;;;;;;;;;4.33;4.33;;;;;17.56;100.00;99791.47;2116576;27;45457;-55
2024/02/08 00:12:39;;;;;;;;;5.33;5.33;;;;;17.58;100.00;99800.28;2116585;27;46308;-58
2024/02/08 00:13:40;;;;;;;;;6.33;5.00;;;;;17.58;100.00;99800.28;2117015;27;47104;-58
2024/02/08 00:14:40;;;;;;;;;5.33;5.33;;;;;17.60;100.00;99798.34;2116467;27;46615;-56
2024/02/08 00:15:41;;;;;;;;;5.33;5.33;;;;;17.69;100.00;99803.16;2117104;27;46418;-58
2024/02/08 00:16:41;;;;;;;;;5.00;5.00;;;;;17.67;100.00;99788.97;2115510;27;46649;-57
2024/02/08 00:17:43;;;;;;;;;4.67;4.67;;;;;17.70;100.00;99791.47;2116287;27;46210;-57
2024/02/08 00:18:44;;;;;;;;;4.50;4.50;;;;;17.72;100.00;99794.03;2116268;27;45775;-57
2024/02/08 00:19:44;;;;;;;;;4.67;4.33;;;;;17.71;100.00;99789.63;2116958;27;46404;-58
2024/02/08 00:20:44;;;;;;;;;3.00;3.00;;;;;17.72;100.00;99791.34;2116703;27;46885;-56
2024/02/08 00:21:45;;;;;;;;;5.33;5.33;;;;;17.74;100.00;99792.13;2116974;27;45966;-58
2024/02/08 00:22:46;;;;;;;;;5.33;4.33;;;;;17.73;100.00;99782.34;2116779;27;46110;-58
2024/02/08 00:23:47;;;;;;;;;4.00;4.00;;;;;17.71;100.00;99793.19;2116387;27;46908;-56
2024/02/08 00:24:47;;;;;;;;;4.67;4.67;;;;;17.71;100.00;99776.22;2115249;27;46409;-57
2024/02/08 00:25:50;;;;;;;;;4.33;4.33;;;;;17.71;100.00;99778.91;2116840;27;46366;-58
2024/02/08 00:26:50;;;;;;;;;5.00;4.75;;;;;17.72;100.00;99781.47;2098497;28;46278;-58
2024/02/08 00:27:54;;;;;;;;;4.67;4.67;;;;;17.73;100.00;99777.84;2098712;27;46311;-57
2024/02/08 00:28:54;;;;;;;;;5.00;5.00;;;;;17.73;100.00;99779.66;2115733;27;46751;-55
2024/02/08 00:29:54;;;;;;;;;3.00;3.00;;;;;17.74;100.00;99776.88;2115481;27;46916;-54
2024/02/08 00:30:55;;;;;;;;;4.33;4.33;;;;;17.74;100.00;99774.19;2115853;27;46327;-58
2024/02/08 00:31:55;;;;;;;;;4.00;3.33;;;;;17.64;100.00;99768.53;2117882;27;46519;-57
2024/02/08 00:32:56;;;;;;;;;5.00;5.00;;;;;17.65;100.00;99772.94;2116138;27;46612;-59
2024/02/08 00:33:56;;;;;;;;;3.33;3.33;;;;;17.62;100.00;99772.28;2114535;27;46276;-59
2024/02/08 00:34:56;;;;;;;;;4.33;4.33;;;;;17.62;100.00;99767.78;2117413;27;46209;-56
2024/02/08 00:35:57;;;;;;;;;3.33;3.33;;;;;17.73;100.00;99775.16;2116151;27;45811;-56
2024/02/08 00:36:57;;;;;;;;;7.00;4.33;;;;;17.72;100.00;99765.38;2094263;28;46782;-58
2024/02/08 00:37:57;;;;;;;;;3.33;3.33;;;;;17.71;100.00;99766.34;2094567;28;46294;-58
2024/02/08 00:38:57;;;;;;;;;3.33;2.33;;;;;17.74;100.00;99770.66;2115110;27;46546;-57
2024/02/08 00:39:58;;;;;;;;;3.67;3.67;;;;;17.74;100.00;99767.97;2115128;27;46643;-56
2024/02/08 00:40:58;;;;;;;;;2.33;2.33;;;;;17.74;100.00;99771.50;2116861;27;46024;-56
2024/02/08 00:41:58;;;;;;;;;5.33;4.00;;;;;17.76;100.00;99764.22;2116594;27;46062;-56
2024/02/08 00:43:01;;;;;;;;;4.00;3.33;;;;;17.75;100.00;99767.00;2117288;27;46331;-56
2024/02/08 00:44:03;;;;;;;;;2.00;2.00;;;;;17.74;100.00;99765.28;2116546;27;46298;-57
2024/02/08 00:45:04;;;;;;;;;3.25;3.25;;;;;17.70;100.00;99763.78;2116403;27;46492;-57
2024/02/08 00:46:05;;;;;;;;;2.75;2.75;;;;;17.72;100.00;99760.00;2117646;27;46770;-54
2024/02/08 00:47:06;;;;;;;;;3.00;2.00;;;;;17.72;100.00;99761.84;2105044;27;47103;-57
2024/02/08 00:48:07;;;;;;;;;2.25;2.25;;;;;17.70;100.00;99756.56;2108198;27;46424;-56
2024/02/08 00:49:07;;;;;;;;;3.33;3.33;;;;;17.71;100.00;99762.81;2116919;27;46579;-58
2024/02/08 00:50:08;;;;;;;;;3.33;3.33;;;;;17.68;100.00;99766.53;2116204;27;46241;-57
2024/02/08 00:51:09;;;;;;;;;4.00;4.00;;;;;17.66;100.00;99760.41;2117347;27;46265;-59
2024/02/08 00:52:09;;;;;;;;;2.25;2.25;;;;;17.70;100.00;99761.94;2116751;27;46586;-59
2024/02/08 00:53:09;;;;;;;;;4.33;3.33;;;;;17.73;100.00;99760.88;2116654;27;46271;-56
2024/02/08 00:54:10;;;;;;;;;4.33;3.33;;;;;17.70;100.00;99753.91;2117479;27;46324;-56
2024/02/08 00:55:10;;;;;;;;;4.33;4.33;;;;;17.72;100.00;99756.47;2115087;27;46286;-56
2024/02/08 00:56:13;;;;;;;;;3.33;3.33;;;;;17.69;100.00;99751.31;2115896;27;47111;-58
2024/02/08 00:57:13;;;;;;;;;2.00;2.00;;;;;17.63;100.00;99750.72;2099184;28;46774;-58
2024/02/08 00:58:16;;;;;;;;;1.00;1.00;;;;;17.58;100.00;99743.94;2098846;27;46891;-58
2024/02/08 00:59:16;;;;;;;;;4.75;4.75;;;;;17.68;100.00;99738.84;2116471;27;46818;-58
2024/02/08 01:00:17;;;;;;;;;4.33;4.33;;;;;17.69;100.00;99740.59;2116798;27;46214;-58
2024/02/08 01:01:18;;;;;;;;;3.33;3.33;;;;;17.71;100.00;99742.19;2116268;27;46696;-55
2024/02/08 01:02:18;;;;;;;;;2.00;2.00;;;;;17.71;100.00;99744.03;2117363;27;46521;-57
2024/02/08 01:03:19;;;;;;;;;4.33;4.33;;;;;17.70;100.00;99747.66;2115981;27;46187;-59
2024/02/08 01:04:21;;;;;;;;;4.50;3.00;;;;;17.68;100.00;99753.09;2116474;27;46259;-58
2024/02/08 01:05:21;;;;;;;;;1.75;1.75;;;;;17.70;100.00;99750.34;2116172;27;46125;-56
2024/02/08 01:06:21;;;;;;;;;3.00;3.00;;;;;17.68;100.00;99752.25;2115895;27;47279;-56
2024/02/08 01:07:22;;;;;;;;;3.33;2.33;;;;;17.71;100.00;99750.25;2117111;27;46199;-56
2024/02/08 01:08:22;;;;;;;;;3.00;3.00;;;;;17.73;100.00;99748.31;2116699;27;46757;-53
2024/02/08 01:09:22;;;;;;;;;5.00;4.33;;;;;17.72;100.00;99749.28;2114474;27;46043;-56
2024/02/08 01:10:23;;;;;;;;;2.33;2.33;;;;;17.74;100.00;99743.81;2116043;27;46460;-57
2024/02/08 01:11:23;;;;;;;;;4.33;4.33;;;;;17.76;100.00;99745.41;2116911;27;47582;-55
2024/02/08 01:12:23;;;;;;;;;0.67;0.67;;;;;17.75;100.00;99743.69;2114755;27;46798;-57
2024/02/08 01:13:26;;;;;;;;;3.33;3.33;;;;;17.73;100.00;99742.94;2117064;27;46635;-58
2024/02/08 01:14:27;;;;;;;;;2.50;2.50;;;;;17.74;100.00;99744.66;2115299;27;46394;-58
2024/02/08 01:15:28;;;;;;;;;3.67;3.67;;;;;17.75;100.00;99742.84;2117335;27;45627;-59
2024/02/08 01:16:33;;;;;;;;;3.75;3.75;;;;;17.74;100.00;99743.81;2115709;27;46548;-58
2024/02/08 01:17:33;;;;;;;;;3.25;3.25;;;;;17.74;100.00;99739.31;2115072;27;46819;-56
2024/02/08 01:18:34;;;;;;;;;2.33;2.33;;;;;17.73;100.00;99742.09;2116014;27;46441;-57
2024/02/08 01:19:34;;;;;;;;;2.33;2.33;;;;;17.70;100.00;99745.00;2116131;27;46770;-57
2024/02/08 01:20:34;;;;;;;;;4.33;4.33;;;;;17.73;100.00;99742.09;2116294;27;46351;-58
2024/02/08 01:21:35;;;;;;;;;4.33;3.33;;;;;17.70;100.00;99745.00;2116491;27;46086;-55
2024/02/08 01:22:35;;;;;;;;;3.00;3.00;;;;;17.67;100.00;99745.16;2116332;27;46506;-56
2024/02/08 01:23:37;;;;;;;;;4.33;4.33;;;;;17.72;100.00;99743.06;2116163;27;46445;-56
2024/02/08 01:24:37;;;;;;;;;3.00;3.00;;;;;17.67;100.00;99739.78;2116692;27;46038;-56
2024/02/08 01:25:41;;;;;;;;;4.00;4.00;;;;;17.64;100.00;99739.00;2116777;27;46458;-57
2024/02/08 01:26:41;;;;;;;;;2.50;2.50;;;;;17.65;100.00;99740.72;2116111;27;47204;-56
2024/02/08 01:27:43;;;;;;;;;2.33;2.33;;;;;17.67;100.00;99737.97;2116603;27;46357;-58
2024/02/08 01:28:43;;;;;;;;;2.50;2.50;;;;;17.66;100.00;99738.94;2115908;27;46453;-56
2024/02/08 01:29:44;;;;;;;;;3.67;3.67;;;;;17.64;100.00;99740.84;2113961;27;46466;-58
2024/02/08 01:30:45;;;;;;;;;3.00;3.00;;;;;17.63;100.00;99739.97;2116176;27;46322;-58
2024/02/08 01:31:45;;;;;;;;;2.00;2.00;;;;;17.62;100.00;99742.75;2115952;27;46388;-57
2024/02/08 01:32:49;;;;;;;;;4.33;2.67;;;;;17.69;100.00;99744.13;2115811;27;46773;-57
2024/02/08 01:33:50;;;;;;;;;2.75;2.75;;;;;17.72;100.00;99729.63;2114948;27;47751;-57
2024/02/08 01:34:50;;;;;;;;;2.25;2.25;;;;;17.72;100.00;99724.28;2116204;27;46428;-56
2024/02/08 01:35:51;;;;;;;;;4.00;4.00;;;;;17.72;100.00;99730.50;2116309;27;46997;-58
2024/02/08 01:36:53;;;;;;;;;2.33;2.33;;;;;17.72;100.00;99730.50;2115850;27;46570;-57
2024/02/08 01:37:53;;;;;;;;;2.75;2.75;;;;;17.73;100.00;99724.16;2115610;27;46577;-58
2024/02/08 01:38:54;;;;;;;;;3.33;3.33;;;;;17.74;100.00;99733.94;2116601;27;46400;-59
2024/02/08 01:39:54;;;;;;;;;2.67;2.67;;;;;17.74;100.00;99731.25;2116519;27;46109;-55
2024/02/08 01:40:55;;;;;;;;;2.00;2.00;;;;;17.74;100.00;99727.72;2116173;27;46599;-56
2024/02/08 01:41:55;;;;;;;;;4.00;2.33;;;;;17.73;100.00;99729.53;2116274;27;46397;-58
2024/02/08 01:42:58;;;;;;;;;3.67;2.33;;;;;17.75;100.00;99729.44;2115945;27;46216;-55
2024/02/08 01:44:03;;;;;;;;;1.50;1.50;;;;;17.77;100.00;99725.66;2116431;27;46945;-58
2024/02/08 01:45:37;;;;;;;;;1.00;1.00;;;;;17.78;100.00;99723.84;2114229;27;47780;-58
2024/02/08 01:46:38;;;;;;;;;1.75;1.75;;;;;17.78;100.00;99719.34;2116473;27;46529;-56
2024/02/08 01:47:39;;;;;;;;;3.33;3.33;;;;;17.76;100.00;99720.41;2116636;27;46915;-58
2024/02/08 01:48:44;;;;;;;;;1.25;1.25;;;;;17.76;100.00;99723.09;2116054;27;46543;-55
2024/02/08 01:49:47;;;;;;;;;1.75;1.75;;;;;17.75;100.00;99719.56;2115323;27;46828;-58
2024/02/08 01:50:50;;;;;;;;;1.75;1.75;;;;;17.77;100.00;99720.31;2115793;27;47003;-60
2024/02/08 01:51:59;;;;;;;;;2.00;2.00;;;;;17.77;100.00;99717.63;2115399;27;47332;-57
2024/02/08 01:53:00;;;;;;;;;3.25;3.25;;;;;17.76;100.00;99715.03;2116057;27;46987;-56
2024/02/08 01:54:01;;;;;;;;;2.67;2.67;;;;;17.76;100.00;99712.34;2115133;27;46663;-57
2024/02/08 01:55:02;;;;;;;;;2.00;2.00;;;;;17.75;100.00;99708.81;2115940;27;46852;-58
2024/02/08 01:56:03;;;;;;;;;1.67;1.67;;;;;17.75;100.00;99708.81;2106666;27;46654;-58
2024/02/08 01:57:04;;;;;;;;;1.25;1.25;;;;;17.76;100.00;99707.84;2106602;27;46378;-58
2024/02/08 01:58:07;;;;;;;;;2.67;2.67;;;;;17.77;100.00;99708.72;2116232;27;46751;-54
2024/02/08 01:59:13;;;;;;;;;1.00;1.00;;;;;17.78;100.00;99710.44;2115236;27;46468;-56
2024/02/08 02:00:14;;;;;;;;;1.25;1.25;;;;;17.75;100.00;99711.50;2114221;27;46985;-58
2024/02/08 02:01:14;;;;;;;;;1.67;1.67;;;;;17.79;100.00;99704.97;2116633;27;46620;-57
2024/02/08 02:02:17;;;;;;;;;1.33;1.33;;;;;17.84;100.00;99701.97;2115655;27;46598;-54
2024/02/08 02:03:19;;;;;;;;;1.25;1.25;;;;;17.82;100.00;99695.88;2115917;27;46248;-58
2024/02/08 02:04:19;;;;;;;;;1.25;1.25;;;;;17.79;100.00;99688.03;2115869;27;46454;-57
2024/02/08 02:05:21;;;;;;;;;2.33;2.33;;;;;17.77;100.00;99701.53;2115738;27;46220;-58
2024/02/08 02:06:21;;;;;;;;;2.25;2.25;;;;;17.77;100.00;99690.78;2116781;27;45740;-59
2024/02/08 02:07:23;;;;;;;;;2.33;2.33;;;;;17.77;100.00;99685.41;2116060;27;46418;-58
2024/02/08 02:08:26;;;;;;;;;1.50;1.50;;;;;17.75;100.00;99692.72;2116417;27;47097;-58
2024/02/08 02:09:30;;;;;;;;;1.00;1.00;;;;;17.79;100.00;99698.75;2116047;27;46728;-58
2024/02/08 02:10:30;;;;;;;;;1.25;1.25;;;;;17.73;100.00;99696.47;2116107;27;47092;-56
2024/02/08 02:11:48;;;;;;;;;0.33;0.33;;;;;17.72;100.00;99695.63;2116805;27;46622;-57
2024/02/08 02:12:49;;;;;;;;;3.00;1.25;;;;;17.68;100.00;99694.06;2115848;27;46562;-56
2024/02/08 02:13:51;;;;;;;;;2.00;2.00;;;;;17.70;100.00;99689.50;2115853;27;46550;-56
2024/02/08 02:14:53;;;;;;;;;1.00;1.00;;;;;17.69;100.00;99689.59;2115772;27;46819;-54
2024/02/08 02:15:53;;;;;;;;;3.00;1.75;;;;;17.69;100.00;99690.47;2116333;27;46846;-58
2024/02/08 02:17:03;;;;;;;;;1.00;1.00;;;;;17.75;100.00;99687.34;2115451;27;46783;-57
2024/02/08 02:18:09;;;;;;;;;1.00;1.00;;;;;17.78;100.00;99688.97;2116325;27;46941;-57
2024/02/08 02:19:09;;;;;;;;;1.50;1.50;;;;;17.79;100.00;99683.53;2115431;27;46707;-58
2024/02/08 02:20:18;;;;;;;;;2.33;2.33;;;;;17.80;100.00;99681.69;2115809;27;46621;-59
2024/02/08 02:21:22;;;;;;;;;1.25;1.25;;;;;17.81;100.00;99675.34;2115654;27;46541;-56
2024/02/08 02:22:23;;;;;;;;;0.50;0.50;;;;;17.79;100.00;99674.59;2107323;27;46251;-57
2024/02/08 02:23:24;;;;;;;;;2.00;2.00;;;;;17.80;100.00;99677.19;2107468;27;46608;-57
2024/02/08 02:24:25;;;;;;;;;1.00;1.00;;;;;17.79;100.00;99670.09;2114654;27;46510;-56
2024/02/08 02:25:29;;;;;;;;;2.33;0.67;;;;;17.79;100.00;99672.78;2115771;27;46509;-58
2024/02/08 02:26:32;;;;;;;;;1.00;1.00;;;;;17.78;100.00;99681.75;2115462;27;46777;-58
2024/02/08 02:27:33;;;;;;;;;1.50;1.50;;;;;17.82;100.00;99664.50;2114666;27;46324;-58
2024/02/08 02:28:36;;;;;;;;;2.25;1.50;;;;;17.82;100.00;99663.66;2115969;27;47601;-57
2024/02/08 02:29:38;;;;;;;;;1.25;1.25;;;;;17.79;100.00;99662.03;2114766;27;46804;-57
2024/02/08 02:30:38;;;;;;;;;1.00;1.00;;;;;17.84;100.00;99661.72;2115430;27;46340;-59
2024/02/08 02:31:39;;;;;;;;;1.67;1.67;;;;;17.85;100.00;99666.97;2115761;27;46912;-56
2024/02/08 02:32:41;;;;;;;;;0.67;0.67;;;;;17.87;100.00;99662.34;2114886;27;46454;-58
2024/02/08 02:33:42;;;;;;;;;1.25;1.25;;;;;17.88;100.00;99664.06;2114476;27;46481;-59
2024/02/08 02:34:44;;;;;;;;;1.00;1.00;;;;;17.88;100.00;99664.06;2104688;27;46277;-55
2024/02/08 02:35:48;;;;;;;;;2.00;2.00;;;;;17.88;100.00;99666.75;2105318;27;46311;-58
2024/02/08 02:36:53;;;;;;;;;1.25;1.25;;;;;17.87;100.00;99665.03;2106377;27;46290;-59
2024/02/08 02:37:54;;;;;;;;;2.00;1.25;;;;;17.88;100.00;99657.84;2106542;27;46477;-58
2024/02/08 02:38:55;;;;;;;;;1.75;1.75;;;;;17.88;100.00;99660.53;2116251;27;46466;-57
2024/02/08 02:39:55;;;;;;;;;1.00;1.00;;;;;17.90;100.00;99658.59;2116705;27;46170;-58
2024/02/08 02:41:00;;;;;;;;;2.33;2.33;;;;;17.90;100.00;99650.53;2115557;27;46004;-56
2024/02/08 02:42:01;;;;;;;;;2.00;2.00;;;;;17.91;100.00;99661.22;2116081;27;46963;-58
2024/02/08 02:43:09;;;;;;;;;1.33;1.33;;;;;17.91;100.00;99652.25;2106921;27;46338;-58
2024/02/08 02:44:10;;;;;;;;;0.75;0.75;;;;;17.91;100.00;99654.94;2108479;27;46724;-56
2024/02/08 02:45:13;;;;;;;;;1.33;1.33;;;;;17.98;100.00;99650.88;2114902;27;46799;-52
2024/02/08 02:46:13;;;;;;;;;2.25;2.25;;;;;18.02;100.00;99648.84;2116004;27;46176;-58
2024/02/08 02:47:13;;;;;;;;;1.33;1.33;;;;;17.93;100.00;99645.84;2115272;27;46769;-56
2024/02/08 02:48:14;;;;;;;;;2.67;2.33;;;;;17.93;100.00;99642.31;2106776;27;46507;-59
2024/02/08 02:49:14;;;;;;;;;0.67;0.67;;;;;17.92;100.00;99644.13;2106285;27;46299;-55
2024/02/08 02:50:18;;;;;;;;;1.67;0.67;;;;;17.93;100.00;99636.94;2116484;27;45570;-56
2024/02/08 02:51:19;;;;;;;;;1.50;1.00;;;;;17.93;100.00;99634.25;2115367;27;46726;-56
2024/02/08 02:52:20;;;;;;;;;1.00;1.00;;;;;17.93;100.00;99631.56;2114640;27;48439;-58
2024/02/08 02:53:20;;;;;;;;;1.67;1.67;;;;;17.92;100.00;99636.09;2115760;27;45833;-59
2024/02/08 02:54:20;;;;;;;;;1.00;1.00;;;;;17.92;100.00;99628.03;2106603;27;45140;-58
2024/02/08 02:55:22;;;;;;;;;2.33;2.33;;;;;17.92;100.00;99629.84;2106903;27;46613;-57
2024/02/08 02:56:23;;;;;;;;;2.25;2.25;;;;;17.92;100.00;99625.34;2116067;27;46777;-55
2024/02/08 02:57:23;;;;;;;;;2.00;2.00;;;;;17.92;100.00;99630.72;2116246;27;46771;-57
2024/02/08 02:58:25;;;;;;;;;2.33;2.33;;;;;17.92;100.00;99625.34;2115436;27;46281;-58
2024/02/08 02:59:26;;;;;;;;;1.50;0.75;;;;;17.92;100.00;99625.34;2116053;27;46315;-55
2024/02/08 03:00:33;;;;;;;;;2.50;2.00;;;;;17.93;100.00;99623.53;2115410;27;46493;-54
2024/02/08 03:01:33;;;;;;;;;1.50;1.50;;;;;17.94;100.00;99619.88;2115311;27;46964;-58
2024/02/08 03:02:34;;;;;;;;;1.33;1.33;;;;;17.94;100.00;99619.88;2116262;27;45613;-57
2024/02/08 03:03:37;;;;;;;;;1.33;1.33;;;;;17.94;100.00;99625.25;2115626;27;46448;-56
2024/02/08 03:04:37;;;;;;;;;2.25;2.25;;;;;17.94;100.00;99620.72;2115189;27;46804;-56
2024/02/08 03:05:45;;;;;;;;;2.33;2.33;;;;;17.96;100.00;99612.56;2115617;27;45125;-58
2024/02/08 03:06:45;;;;;;;;;1.75;1.75;;;;;17.93;100.00;99621.69;2115700;27;45181;-58
2024/02/08 03:07:52;;;;;;;;;1.67;1.67;;;;;17.96;100.00;99611.69;2115224;27;46878;-60
2024/02/08 03:08:52;;;;;;;;;1.00;1.00;;;;;17.93;100.00;99618.16;2112568;27;46359;-57
2024/02/08 03:09:52;;;;;;;;;2.33;2.33;;;;;17.88;100.00;99618.44;2098045;28;46057;-57
2024/02/08 03:10:53;;;;;;;;;1.67;1.67;;;;;17.85;100.00;99615.97;2097660;28;46946;-58
2024/02/08 03:11:54;;;;;;;;;0.67;0.67;;;;;17.85;100.00;99615.97;2114608;27;46259;-59
2024/02/08 03:12:54;;;;;;;;;1.25;1.25;;;;;17.84;100.00;99611.59;2115589;27;45440;-56
2024/02/08 03:13:55;;;;;;;;;1.33;1.33;;;;;17.84;100.00;99608.03;2116650;27;46729;-57
2024/02/08 03:15:00;;;;;;;;;1.00;1.00;;;;;17.84;100.00;99608.91;2115827;27;46929;-58
2024/02/08 03:16:05;;;;;;;;;0.00;0.00;;;;;17.83;100.00;99612.56;2115367;27;46779;-57
2024/02/08 03:17:06;;;;;;;;;0.25;0.25;;;;;17.82;100.00;99607.28;2092232;28;46542;-58
2024/02/08 03:18:07;;;;;;;;;2.00;2.00;;;;;17.83;100.00;99604.50;2094072;27;46103;-58
2024/02/08 03:19:07;;;;;;;;;0.33;0.33;;;;;17.82;100.00;99605.47;2115506;27;46437;-59
2024/02/08 03:20:08;;;;;;;;;1.33;1.00;;;;;17.82;100.00;99605.47;2114840;27;46746;-59
2024/02/08 03:21:17;;;;;;;;;1.00;0.33;;;;;17.84;100.00;99598.16;2116009;27;46925;-59
2024/02/08 03:22:18;;;;;;;;;2.00;2.00;;;;;17.83;100.00;99599.13;2114470;27;46751;-56
2024/02/08 03:23:18;;;;;;;;;2.00;2.00;;;;;17.84;100.00;99594.63;2115315;27;46608;-58
2024/02/08 03:24:25;;;;;;;;;1.25;1.25;;;;;17.85;100.00;99599.03;2104135;27;46724;-58
2024/02/08 03:25:25;;;;;;;;;0.00;0.00;;;;;17.85;100.00;99589.16;2105825;27;45770;-57
2024/02/08 03:26:26;;;;;;;;;1.00;1.00;;;;;17.85;100.00;99597.19;2115596;27;46328;-57
2024/02/08 03:27:26;;;;;;;;;0.00;0.00;;;;;17.85;100.00;99596.34;2093618;28;46543;-59
2024/02/08 03:28:28;;;;;;;;;0.33;0.33;;;;;17.85;100.00;99586.47;2093223;28;46666;-57
2024/02/08 03:29:29;;;;;;;;;0.00;0.00;;;;;17.86;100.00;99595.38;2115532;27;46438;-59
2024/02/08 03:30:32;;;;;;;;;0.00;0.00;;;;;17.86;100.00;99598.06;2114684;27;46439;-59
2024/02/08 03:31:32;;;;;;;;;0.25;0.25;;;;;17.84;100.00;99586.56;2114436;27;46829;-57
2024/02/08 03:32:35;;;;;;;;;0.33;0.33;;;;;17.84;100.00;99587.44;2115337;27;46311;-58
2024/02/08 03:33:37;;;;;;;;;0.25;0.25;;;;;17.82;100.00;99584.00;2114844;27;46884;-60
2024/02/08 03:34:37;;;;;;;;;0.50;0.50;;;;;17.83;100.00;99588.41;2115043;27;47007;-57
2024/02/08 03:35:38;;;;;;;;;0.00;0.00;;;;;17.83;100.00;99585.72;2116292;27;46723;-57
2024/02/08 03:36:40;;;;;;;;;0.00;0.00;;;;;17.82;100.00;99586.69;2088387;28;47145;-57
2024/02/08 03:37:43;;;;;;;;;0.00;0.00;;;;;17.82;100.00;99584.00;2088810;27;45933;-58
2024/02/08 03:38:44;;;;;;;;;0.25;0.25;;;;;17.81;100.00;99579.59;2116119;27;46548;-58
2024/02/08 03:39:46;;;;;;;;;0.00;0.00;;;;;17.80;100.00;99580.56;2114892;27;46343;-56
2024/02/08 03:40:47;;;;;;;;;0.00;0.00;;;;;17.91;100.00;99577.09;2115570;27;46621;-59
2024/02/08 03:41:47;;;;;;;;;0.00;0.00;;;;;17.93;100.00;99572.53;2113173;27;46307;-57
2024/02/08 03:42:49;;;;;;;;;0.33;0.33;;;;;17.96;100.00;99574.13;2115569;27;46455;-57
2024/02/08 03:43:50;;;;;;;;;0.00;0.00;;;;;17.93;100.00;99568.00;2116570;27;46559;-57
2024/02/08 03:44:51;;;;;;;;;0.00;0.00;;;;;17.93;100.00;99567.16;2114874;27;46172;-59
2024/02/08 03:45:55;;;;;;;;;0.00;0.00;;;;;17.87;100.00;99568.44;2114746;27;46835;-59
2024/02/08 03:47:03;;;;;;;;;0.00;0.00;;;;;17.87;100.00;99575.63;2116146;27;47051;-57
2024/02/08 03:48:04;;;;;;;;;0.00;0.00;;;;;17.82;100.00;99569.72;2115052;27;47226;-58
2024/02/08 03:49:08;;;;;;;;;0.33;0.33;;;;;-143.47;100.00;63865.75;2114817;27;46642;-57
2024/02/08 03:50:11;;;;;;;;;0.00;0.00;;;;;17.82;100.00;99567.91;2098239;28;46734;-59
2024/02/08 03:51:13;;;;;;;;;0.00;0.00;;;;;17.83;100.00;99569.63;2098981;27;47135;-59
2024/02/08 03:52:14;;;;;;;;;0.00;0.00;;;;;17.82;100.00;99567.91;2115880;27;46946;-59
2024/02/08 03:53:14;;;;;;;;;1.00;0.33;;;;;17.83;100.00;99566.06;2116045;27;46537;-56
2024/02/08 03:54:18;;;;;;;;;0.00;0.00;;;;;17.83;100.00;99563.38;2106253;27;46697;-58
2024/02/08 03:55:26;;;;;;;;;0.00;0.00;;;;;17.82;100.00;99567.03;2104686;27;46321;-57
2024/02/08 03:56:36;;;;;;;;;0.00;0.00;;;;;17.83;100.00;99566.06;2114729;27;46958;-55
2024/02/08 03:57:37;;;;;;;;;0.00;0.00;;;;;17.83;100.00;99563.38;2116169;27;46985;-59
2024/02/08 03:58:37;;;;;;;;;0.00;0.00;;;;;17.83;100.00;99558.88;2115477;27;48194;-55
2024/02/08 03:59:40;;;;;;;;;0.33;0.33;;;;;17.82;100.00;99562.53;2114929;27;46454;-57
2024/02/08 04:00:46;;;;;;;;;0.00;0.00;;;;;17.85;100.00;99561.44;2114546;27;46506;-57
2024/02/08 04:01:52;;;;;;;;;0.00;0.00;;;;;17.85;100.00;99553.41;2115946;27;46918;-58
2024/02/08 04:02:52;;;;;;;;;0.00;0.00;;;;;17.84;100.00;99555.22;2113914;27;46598;-55
2024/02/08 04:03:53;;;;;;;;;0.00;0.00;;;;;17.84;100.00;99546.31;2115795;27;45877;-58
2024/02/08 04:04:53;;;;;;;;;0.00;0.00;;;;;17.83;100.00;99553.50;2117230;27;46703;-56
2024/02/08 04:07:14;;;;;;;;;0.00;0.00;;;;;17.84;100.00;99549.00;2116157;27;46502;-55
2024/02/08 04:09:36;;;;;;;;;0.00;0.00;;;;;17.82;100.00;99546.44;2117369;27;46952;-57
2024/02/08 04:54:21;;;;;;;;;0.00;0.00;;;;;17.69;100.00;99504.47;2077643;28;45631;-57
2024/02/08 04:55:23;;;;;;;;;0.00;0.00;;;;;17.70;100.00;99503.50;2077892;28;46710;-57
2024/02/08 04:56:24;;;;;;;;;0.00;0.00;;;;;17.70;100.00;99507.03;2078207;28;46761;-57
2024/02/08 04:57:25;;;;;;;;;0.00;0.00;;;;;17.69;100.00;99499.97;2078270;28;46061;-57
2024/02/08 04:58:26;;;;;;;;;0.00;0.00;;;;;17.70;100.00;99503.50;2078041;28;46618;-56
2024/02/08 04:59:27;;;;;;;;;0.25;0.00;;;;;17.72;100.00;99502.41;2077997;28;46376;-59
2024/02/08 05:00:28;;;;;;;;;0.00;0.00;;;;;17.70;100.00;99507.03;2078276;28;46229;-59
2024/02/08 05:01:28;;;;;;;;;0.00;0.00;;;;;17.72;100.00;99501.56;2078535;28;46884;-61
2024/02/08 05:02:31;;;;;;;;;0.00;0.00;;;;;17.72;100.00;99507.78;2078106;28;46242;-61
2024/02/08 05:03:31;;;;;;;;;0.00;0.00;;;;;17.71;100.00;99500.69;2077290;28;46601;-58
2024/02/08 05:04:35;;;;;;;;;0.00;0.00;;;;;17.69;100.00;99491.91;2070375;28;46355;-57
2024/02/08 05:05:43;;;;;;;;;0.00;0.00;;;;;17.70;100.00;99485.56;2069128;28;47386;-56
2024/02/08 05:06:45;;;;;;;;;0.00;0.00;;;;;17.71;100.00;99489.97;2078023;28;46873;-60
2024/02/08 05:07:45;;;;;;;;;0.00;0.00;;;;;17.71;100.00;99500.69;2078087;28;46312;-57
2024/02/08 05:08:47;;;;;;;;;0.00;0.00;;;;;17.74;100.00;99494.25;2078055;28;45641;-61
2024/02/08 05:09:47;;;;;;;;;0.00;0.00;;;;;17.74;100.00;99494.25;2085150;28;46755;-59
2024/02/08 05:10:48;;;;;;;;;0.00;0.00;;;;;17.73;100.00;99493.41;2086435;28;46454;-60
2024/02/08 05:11:52;;;;;;;;;0.00;0.00;;;;;17.74;100.00;99500.47;2086884;28;46765;-61
2024/02/08 05:12:52;;;;;;;;;0.00;0.00;;;;;17.74;100.00;99497.78;2086261;28;46757;-59
2024/02/08 05:13:52;;;;;;;;;1.00;0.00;;;;;17.76;100.00;99493.16;2086521;28;46432;-60
2024/02/08 05:14:53;;;;;;;;;0.00;0.00;;;;;17.75;100.00;99491.47;2086032;28;46406;-59
2024/02/08 05:15:53;;;;;;;;;0.00;0.00;;;;;17.75;100.00;99494.16;2085785;28;46958;-59
2024/02/08 05:16:56;;;;;;;;;0.00;0.00;;;;;17.75;100.00;99494.16;2086423;28;46412;-59
2024/02/08 05:17:56;;;;;;;;;0.00;0.00;;;;;17.74;100.00;99500.47;2086510;28;46776;-59
2024/02/08 05:18:57;;;;;;;;;0.00;0.00;;;;;17.72;100.00;99496.19;2085848;28;46651;-60
2024/02/08 05:19:57;;;;;;;;;0.00;0.00;;;;;17.62;100.00;99495.94;2060995;28;47074;-57
2024/02/08 05:20:57;;;;;;;;;0.00;0.00;;;;;17.58;100.00;99492.63;2071599;28;46186;-62
2024/02/08 05:22:02;;;;;;;;;0.00;0.00;;;;;17.58;100.00;99497.13;2116271;27;46238;-59
2024/02/08 05:23:03;;;;;;;;;0.00;0.00;;;;;17.59;100.00;99491.66;2116938;27;46748;-58
2024/02/08 05:24:03;;;;;;;;;0.00;0.00;;;;;17.60;100.00;99490.69;2114764;27;46586;-60
2024/02/08 05:25:10;;;;;;;;;0.00;0.00;;;;;17.63;100.00;99484.25;2113755;27;46378;-58
2024/02/08 05:26:19;;;;;;;;;0.00;0.00;;;;;17.75;100.00;99483.41;2116507;27;46803;-59
2024/02/08 05:27:22;;;;;;;;;0.00;0.00;;;;;17.76;100.00;99482.44;2115645;27;46451;-60
2024/02/08 05:28:23;;;;;;;;;0.00;0.00;;;;;17.75;100.00;99483.41;2116027;27;46546;-60
2024/02/08 05:29:24;;;;;;;;;0.00;0.00;;;;;17.76;100.00;99482.44;2090433;28;47081;-58
2024/02/08 05:30:24;;;;;;;;;0.00;0.00;;;;;17.76;100.00;99484.25;2093739;28;46593;-57
2024/02/08 05:31:25;;;;;;;;;0.00;0.00;;;;;17.75;100.00;99478.03;2115263;27;46372;-61
2024/02/08 05:32:26;;;;;;;;;0.00;0.00;;;;;17.76;100.00;99478.91;2116146;27;46396;-57
2024/02/08 05:33:29;;;;;;;;;0.00;0.00;;;;;17.77;100.00;99481.47;2116419;27;47060;-58